Time;durP1;ratioP1;P1;durP2;ratioP2;P2;SDS_P1;SDS_P2;PMS_P1;PMS_P2;Temp;Humidity;BMP_temperature;BMP_pressure;BME280_temperature;BME280_humidity;BME280_pressure;Samples;Min_cycle;Max_cycle;Signal;HPM_P1;HPM_P2
2021/11/11 00:00:50;;;;;;;0.40;0.40;;;4.80;99.90;;;;;;5032936;28;20032;-76
2021/11/11 00:03:18;;;;;;;0.30;0.30;;;4.80;99.90;;;;;;5048209;28;20029;-75
2021/11/11 00:05:44;;;;;;;0.38;0.38;;;4.70;99.90;;;;;;5032641;28;20424;-75
2021/11/11 00:08:10;;;;;;;0.65;0.65;;;4.60;99.90;;;;;;5032801;28;20390;-76
2021/11/11 00:10:36;;;;;;;0.22;0.22;;;4.40;99.90;;;;;;5032743;28;20044;-76
2021/11/11 00:13:02;;;;;;;0.95;0.95;;;4.40;99.90;;;;;;5032635;28;20079;-76
2021/11/11 00:15:28;;;;;;;0.68;0.68;;;4.40;99.90;;;;;;5032476;28;20473;-76
2021/11/11 00:17:54;;;;;;;0.40;0.40;;;4.20;99.90;;;;;;5048032;28;20033;-76
2021/11/11 00:20:24;;;;;;;1.10;1.10;;;4.30;99.90;;;;;;5032506;28;20029;-76
2021/11/11 00:22:51;;;;;;;0.40;0.40;;;4.20;99.90;;;;;;5031438;28;20421;-76
2021/11/11 00:25:19;;;;;;;0.30;0.30;;;4.30;99.90;;;;;;5032415;28;20435;-76
2021/11/11 00:27:46;;;;;;;3.35;3.15;;;4.40;99.90;;;;;;5032439;28;20033;-76
2021/11/11 00:30:14;;;;;;;0.63;0.63;;;4.40;99.90;;;;;;5032469;28;20358;-76
2021/11/11 00:32:40;;;;;;;0.30;0.30;;;4.40;99.90;;;;;;5032266;28;20032;-76
2021/11/11 00:35:13;;;;;;;0.30;0.30;;;4.30;99.90;;;;;;5032278;28;20079;-76
2021/11/11 00:37:39;;;;;;;0.40;0.40;;;4.30;99.90;;;;;;5032297;28;20423;-76
2021/11/11 00:40:06;;;;;;;0.28;0.28;;;4.30;99.90;;;;;;5030891;28;20036;-76
2021/11/11 00:42:33;;;;;;;0.75;0.75;;;4.40;99.90;;;;;;5030936;28;20060;-76
2021/11/11 00:44:59;;;;;;;1.70;1.60;;;4.30;99.90;;;;;;5032029;28;20021;-76
2021/11/11 00:47:25;;;;;;;0.55;0.55;;;4.40;99.90;;;;;;5014472;28;20431;-75
2021/11/11 00:49:50;;;;;;;8.18;7.63;;;4.30;99.90;;;;;;5031962;28;20056;-76
2021/11/11 00:52:16;;;;;;;0.30;0.30;;;4.40;99.90;;;;;;5031835;28;20029;-76
2021/11/11 00:54:43;;;;;;;0.20;0.20;;;4.50;99.90;;;;;;5032060;28;20035;-76
2021/11/11 00:57:10;;;;;;;0.65;0.65;;;4.40;99.90;;;;;;5030855;28;20026;-75
2021/11/11 00:59:36;;;;;;;0.20;0.20;;;4.60;99.90;;;;;;5031954;28;20021;-76
2021/11/11 01:02:07;;;;;;;0.40;0.40;;;4.50;99.90;;;;;;5030662;28;20021;-76
2021/11/11 01:04:34;;;;;;;0.33;0.33;;;4.50;99.90;;;;;;5031843;28;20057;-76
2021/11/11 01:06:59;;;;;;;0.30;0.30;;;4.30;99.90;;;;;;5031785;28;20020;-76
2021/11/11 01:09:25;;;;;;;0.50;0.50;;;4.20;99.90;;;;;;5031813;28;20026;-76
2021/11/11 01:11:51;;;;;;;0.30;0.30;;;4.30;99.90;;;;;;5031826;28;20029;-76
2021/11/11 01:14:17;;;;;;;0.28;0.28;;;4.30;99.90;;;;;;5031877;28;20358;-76
2021/11/11 01:16:44;;;;;;;0.22;0.22;;;4.30;99.90;;;;;;5031679;28;20031;-75
2021/11/11 01:19:10;;;;;;;0.43;0.43;;;4.40;99.90;;;;;;5031170;28;20029;-76
2021/11/11 01:21:36;;;;;;;0.20;0.20;;;4.40;99.90;;;;;;5031735;28;20549;-76
2021/11/11 01:24:02;;;;;;;0.30;0.30;;;4.50;99.90;;;;;;5047005;28;20052;-76
2021/11/11 01:26:28;;;;;;;0.30;0.30;;;4.70;99.90;;;;;;5030294;28;20053;-76
2021/11/11 01:28:54;;;;;;;0.30;0.30;;;4.80;99.90;;;;;;5013960;28;20022;-76
2021/11/11 01:31:20;;;;;;;0.30;0.30;;;4.60;99.90;;;;;;5031516;28;20040;-76
2021/11/11 01:33:45;;;;;;;0.20;0.20;;;4.80;99.90;;;;;;5030455;28;20064;-76
2021/11/11 01:36:11;;;;;;;0.30;0.30;;;4.90;99.90;;;;;;5031397;28;20056;-76
2021/11/11 01:38:37;;;;;;;0.30;0.30;;;5.00;99.90;;;;;;5046906;28;20493;-76
2021/11/11 01:41:05;;;;;;;0.20;0.20;;;4.80;99.90;;;;;;5031480;28;20025;-75
2021/11/11 01:43:31;;;;;;;1.05;1.05;;;4.80;99.90;;;;;;5013928;28;20060;-76
2021/11/11 01:45:58;;;;;;;1.25;1.15;;;4.70;99.90;;;;;;5031394;28;20032;-76
2021/11/11 01:48:26;;;;;;;0.20;0.20;;;4.60;99.90;;;;;;5031519;28;20026;-76
2021/11/11 01:50:52;;;;;;;0.38;0.38;;;4.70;99.90;;;;;;5029841;28;20028;-76
2021/11/11 01:53:18;;;;;;;0.30;0.30;;;4.70;99.90;;;;;;5046753;28;20389;-76
2021/11/11 01:55:46;;;;;;;0.20;0.20;;;4.50;99.90;;;;;;5031270;28;20029;-76
2021/11/11 01:58:12;;;;;;;0.20;0.20;;;4.50;99.90;;;;;;5031458;28;20025;-76
2021/11/11 02:00:44;;;;;;;0.35;0.35;;;4.50;99.90;;;;;;5031300;28;20049;-76
2021/11/11 02:03:11;;;;;;;0.30;0.30;;;4.50;99.90;;;;;;5031367;28;20429;-76
2021/11/11 02:05:37;;;;;;;0.30;0.30;;;4.50;99.90;;;;;;5030014;28;20028;-75
2021/11/11 02:08:04;;;;;;;0.30;0.30;;;4.50;99.90;;;;;;5030183;28;20027;-76
2021/11/11 02:10:30;;;;;;;0.30;0.30;;;4.40;99.90;;;;;;5013540;28;20022;-76
2021/11/11 02:12:57;;;;;;;0.30;0.30;;;4.40;99.90;;;;;;5046545;28;20036;-76
2021/11/11 02:15:23;;;;;;;0.20;0.20;;;4.40;99.90;;;;;;5031247;28;20026;-76
2021/11/11 02:17:50;;;;;;;0.20;0.20;;;4.40;99.90;;;;;;5031221;28;20056;-76
2021/11/11 02:20:25;;;;;;;0.38;0.38;;;4.20;99.90;;;;;;5029968;28;20392;-75
2021/11/11 02:22:53;;;;;;;0.20;0.20;;;4.10;99.90;;;;;;5029870;28;20025;-76
2021/11/11 02:25:23;;;;;;;0.75;0.75;;;4.00;99.90;;;;;;5030154;28;20474;-76
2021/11/11 02:27:52;;;;;;;0.38;0.38;;;4.10;99.90;;;;;;5046456;28;20029;-76
2021/11/11 02:30:21;;;;;;;2.45;2.25;;;3.90;99.90;;;;;;5031894;28;20441;-76
2021/11/11 02:32:47;;;;;;;0.40;0.40;;;3.70;99.90;;;;;;5034498;28;20498;-75
2021/11/11 02:35:14;;;;;;;0.30;0.30;;;3.50;99.90;;;;;;5034484;28;20025;-75
2021/11/11 02:37:41;;;;;;;0.52;0.52;;;3.50;99.90;;;;;;5016752;28;20092;-76
2021/11/11 02:40:13;;;;;;;0.30;0.30;;;3.60;99.90;;;;;;5034462;28;20041;-75
2021/11/11 02:42:41;;;;;;;1.30;1.15;;;3.60;99.90;;;;;;5049798;28;20026;-75
2021/11/11 02:45:10;;;;;;;0.28;0.28;;;3.40;99.90;;;;;;5033084;28;20017;-76
2021/11/11 02:47:36;;;;;;;3.30;1.52;;;3.40;99.90;;;;;;5049604;28;20026;-76
2021/11/11 02:50:04;;;;;;;3.95;3.65;;;3.30;99.90;;;;;;5034103;28;20503;-76
2021/11/11 02:52:30;;;;;;;0.30;0.30;;;3.30;99.90;;;;;;5016597;28;20029;-76
2021/11/11 02:54:55;;;;;;;0.75;0.63;;;3.20;99.90;;;;;;5035512;28;20033;-78
2021/11/11 02:57:27;;;;;;;2.60;2.40;;;3.20;99.90;;;;;;5035665;28;20499;-78
2021/11/11 02:59:55;;;;;;;0.43;0.43;;;3.10;99.90;;;;;;5018194;28;20021;-78
2021/11/11 03:02:27;;;;;;;0.63;0.63;;;3.20;99.90;;;;;;5035816;28;20029;-78
2021/11/11 03:04:55;;;;;;;0.47;0.47;;;3.40;99.90;;;;;;5051074;28;20033;-78
2021/11/11 03:07:21;;;;;;;0.30;0.30;;;3.30;99.90;;;;;;5035798;28;20053;-78
2021/11/11 03:09:48;;;;;;;0.32;0.32;;;3.20;99.90;;;;;;5035738;28;20512;-78
2021/11/11 03:12:14;;;;;;;0.50;0.50;;;3.30;99.90;;;;;;5035705;28;20030;-78
2021/11/11 03:14:41;;;;;;;0.50;0.50;;;3.40;99.90;;;;;;5050718;28;20116;-77
2021/11/11 03:17:08;;;;;;;0.60;0.60;;;3.50;99.90;;;;;;5034409;28;20389;-76
2021/11/11 03:19:34;;;;;;;0.30;0.30;;;3.60;99.90;;;;;;5033728;28;20056;-76
2021/11/11 03:22:06;;;;;;;0.22;0.22;;;3.60;99.90;;;;;;5033635;28;20543;-76
2021/11/11 03:24:36;;;;;;;;;;;3.60;99.90;;;;;;5016259;28;20500;-75
2021/11/11 03:27:02;;;;;;;0.88;0.88;;;3.60;99.90;;;;;;5033622;28;19958;-76
2021/11/11 03:29:28;;;;;;;0.20;0.20;;;3.70;99.90;;;;;;5033527;28;20018;-76
2021/11/11 03:31:54;;;;;;;0.75;0.75;;;3.70;99.90;;;;;;5033270;28;20076;-76
2021/11/11 03:34:22;;;;;;;0.30;0.30;;;3.80;99.90;;;;;;5048795;28;20032;-75
2021/11/11 03:36:49;;;;;;;0.85;0.85;;;3.80;99.90;;;;;;5033382;28;20025;-76
2021/11/11 03:39:16;;;;;;;0.40;0.40;;;3.70;99.90;;;;;;5033415;28;20055;-76
2021/11/11 03:41:41;;;;;;;1.55;0.60;;;3.60;99.90;;;;;;5048238;28;20026;-76
2021/11/11 03:44:07;;;;;;;2.95;1.73;;;3.60;99.90;;;;;;5033205;28;20525;-75
2021/11/11 03:46:33;;;;;;;1.00;0.95;;;3.40;99.90;;;;;;5015229;28;20021;-76
2021/11/11 03:48:59;;;;;;;0.90;0.90;;;3.40;99.90;;;;;;5033159;28;20025;-76
2021/11/11 03:51:25;;;;;;;0.47;0.47;;;3.40;99.90;;;;;;5031752;28;20033;-76
2021/11/11 03:53:51;;;;;;;0.30;0.30;;;3.30;99.90;;;;;;5034210;28;20036;-77
2021/11/11 03:56:18;;;;;;;0.40;0.40;;;3.20;99.90;;;;;;5034320;28;20026;-78
2021/11/11 03:58:45;;;;;;;0.40;0.40;;;3.20;99.90;;;;;;5032791;28;20108;-76
2021/11/11 04:01:12;;;;;;;8.30;5.93;;;3.30;99.90;;;;;;5048369;28;20064;-76
2021/11/11 04:03:38;;;;;;;0.20;0.20;;;3.50;99.90;;;;;;5032882;28;20091;-76
2021/11/11 04:06:04;;;;;;;0.22;0.22;;;3.40;99.90;;;;;;5014893;28;20018;-76
2021/11/11 04:08:31;;;;;;;0.30;0.30;;;3.50;99.90;;;;;;5048220;28;20022;-76
2021/11/11 04:10:57;;;;;;;0.30;0.30;;;3.50;99.90;;;;;;5032659;28;20477;-76
2021/11/11 04:13:22;;;;;;;0.30;0.30;;;3.80;99.90;;;;;;5032737;28;20032;-76
2021/11/11 04:15:49;;;;;;;0.30;0.30;;;4.00;99.90;;;;;;5014783;28;20030;-76
2021/11/11 04:18:15;;;;;;;0.77;0.73;;;3.90;99.90;;;;;;5032719;28;20025;-76
2021/11/11 04:20:41;;;;;;;0.32;0.32;;;4.00;99.90;;;;;;5047911;28;20033;-76
2021/11/11 04:23:08;;;;;;;1.20;1.05;;;4.00;99.90;;;;;;5032525;28;20519;-76
2021/11/11 04:25:40;;;;;;;0.22;0.22;;;4.00;99.90;;;;;;5031147;28;20045;-76
2021/11/11 04:28:11;;;;;;;0.30;0.30;;;3.90;99.90;;;;;;5032518;28;20017;-76
2021/11/11 04:30:38;;;;;;;0.30;0.30;;;3.90;99.90;;;;;;5032464;28;20018;-76
2021/11/11 04:33:05;;;;;;;0.30;0.30;;;4.00;99.90;;;;;;5031079;28;20416;-76
2021/11/11 04:35:32;;;;;;;0.68;0.68;;;3.90;99.90;;;;;;5047477;28;20053;-76
2021/11/11 04:38:03;;;;;;;1.15;1.15;;;3.90;99.90;;;;;;5031018;28;20037;-76
2021/11/11 05:01:37;;;;;;;0.30;0.30;;;3.30;99.90;;;;;;5033339;28;20542;-77
2021/11/11 05:04:03;;;;;;;0.40;0.40;;;3.30;99.90;;;;;;5033372;28;20048;-78
2021/11/11 05:06:28;;;;;;;0.30;0.30;;;3.30;99.90;;;;;;5033116;28;20268;-76
2021/11/11 05:08:56;;;;;;;0.30;0.30;;;3.50;99.90;;;;;;5031848;28;20048;-76
2021/11/11 05:11:21;;;;;;;6.53;6.07;;;3.60;99.90;;;;;;5030574;28;20501;-76
2021/11/11 05:13:47;;;;;;;0.35;0.35;;;3.80;99.90;;;;;;5031858;28;20025;-75
2021/11/11 05:16:13;;;;;;;0.95;0.95;;;3.80;99.90;;;;;;5031646;28;20493;-76
2021/11/11 05:18:39;;;;;;;0.32;0.32;;;3.80;99.90;;;;;;5030609;28;20087;-75
2021/11/11 05:21:05;;;;;;;12.80;1.10;;;3.80;99.90;;;;;;5030383;28;20108;-76
2021/11/11 05:23:30;;;;;;;0.30;0.30;;;3.90;99.90;;;;;;5031584;28;20108;-76
2021/11/11 05:25:57;;;;;;;0.20;0.20;;;3.90;99.90;;;;;;5030359;28;20021;-76
2021/11/11 05:28:23;;;;;;;0.60;0.60;;;4.00;99.90;;;;;;5032142;28;20029;-78
2021/11/11 05:30:49;;;;;;;0.30;0.30;;;4.10;99.90;;;;;;5032161;28;20559;-76
2021/11/11 05:33:15;;;;;;;1.15;1.08;;;4.20;99.90;;;;;;5031595;28;20033;-76
2021/11/11 05:35:41;;;;;;;0.20;0.20;;;4.30;99.90;;;;;;5031473;28;20026;-76
2021/11/11 05:38:07;;;;;;;0.38;0.38;;;4.40;99.90;;;;;;5030161;28;20079;-76
2021/11/11 05:40:33;;;;;;;0.30;0.30;;;4.40;99.90;;;;;;5046883;28;20412;-76
2021/11/11 05:42:59;;;;;;;0.30;0.30;;;4.50;99.90;;;;;;5031872;28;20037;-78
2021/11/11 05:45:25;;;;;;;0.63;0.50;;;4.40;99.90;;;;;;5048330;28;20026;-78
2021/11/11 05:47:51;;;;;;;0.38;0.38;;;4.00;99.90;;;;;;5032456;28;20033;-78
2021/11/11 05:50:18;;;;;;;0.95;0.95;;;3.80;99.90;;;;;;5032007;28;20023;-76
2021/11/11 05:52:44;;;;;;;3.30;1.20;;;3.70;99.90;;;;;;5030296;28;20029;-76
2021/11/11 05:55:11;;;;;;;0.32;0.32;;;3.50;99.90;;;;;;5030090;28;20374;-76
2021/11/11 05:57:37;;;;;;;1.50;1.40;;;3.30;99.90;;;;;;5031434;28;20049;-76
2021/11/11 06:00:07;;;;;;;0.50;0.50;;;3.10;99.90;;;;;;5032951;28;20520;-78
2021/11/11 06:02:33;;;;;;;1.10;1.05;;;3.40;99.90;;;;;;5048103;28;20030;-78
2021/11/11 06:04:59;;;;;;;0.93;0.93;;;3.60;99.90;;;;;;5034540;28;20025;-78
2021/11/11 06:07:24;;;;;;;0.30;0.30;;;3.40;99.90;;;;;;5036704;28;20018;-77
2021/11/11 06:09:50;;;;;;;0.55;0.55;;;3.30;99.90;;;;;;5036686;28;20028;-78
2021/11/11 06:12:16;;;;;;;0.98;0.85;;;3.30;99.90;;;;;;5034607;28;20501;-75
2021/11/11 06:14:42;;;;;;;0.20;0.20;;;3.50;99.90;;;;;;5034716;28;20096;-76
2021/11/11 06:17:08;;;;;;;0.30;0.30;;;3.70;99.90;;;;;;5033732;28;20095;-76
2021/11/11 06:19:36;;;;;;;0.30;0.30;;;3.60;99.90;;;;;;5033612;28;20037;-76
2021/11/11 06:22:03;;;;;;;0.40;0.40;;;3.70;99.90;;;;;;5050008;28;20025;-76
2021/11/11 06:24:29;;;;;;;2.15;2.05;;;3.80;99.90;;;;;;5033576;28;20441;-76
2021/11/11 06:26:57;;;;;;;3.38;3.17;;;4.00;99.90;;;;;;5033448;28;20056;-76
2021/11/11 06:29:23;;;;;;;0.30;0.30;;;3.90;99.90;;;;;;5033434;28;20017;-76
2021/11/11 06:31:48;;;;;;;0.30;0.30;;;3.90;99.90;;;;;;5034451;28;20079;-76
2021/11/11 06:34:14;;;;;;;0.20;0.20;;;3.80;99.90;;;;;;5049876;28;20022;-76
2021/11/11 06:36:40;;;;;;;0.63;0.63;;;3.70;99.90;;;;;;5033182;28;20021;-76
2021/11/11 06:39:06;;;;;;;0.30;0.30;;;3.70;99.90;;;;;;5033032;28;20103;-76
2021/11/11 06:41:31;;;;;;;0.30;0.30;;;3.80;99.90;;;;;;5033249;28;20021;-76
2021/11/11 06:43:57;;;;;;;10.55;6.82;;;4.00;99.90;;;;;;5046537;28;20025;-77
2021/11/11 06:46:23;;;;;;;0.30;0.30;;;4.10;99.90;;;;;;5032029;28;20351;-76
2021/11/11 06:48:49;;;;;;;0.30;0.30;;;4.20;99.90;;;;;;5032841;28;20572;-76
2021/11/11 06:51:15;;;;;;;0.30;0.30;;;4.40;99.90;;;;;;5034243;28;20489;-75
2021/11/11 06:53:41;;;;;;;0.45;0.45;;;4.50;99.90;;;;;;5047109;28;20029;-76
2021/11/11 06:56:07;;;;;;;0.30;0.30;;;4.60;99.90;;;;;;5054006;28;20401;-76
2021/11/11 06:58:33;;;;;;;6.43;4.88;;;4.60;99.90;;;;;;5054026;28;20029;-76
2021/11/11 07:01:01;;;;;;;0.40;0.40;;;4.70;99.90;;;;;;5053725;28;20027;-76
2021/11/11 07:03:28;;;;;;;0.20;0.20;;;4.70;99.90;;;;;;5050750;28;20025;-76
2021/11/11 07:05:54;;;;;;;0.20;0.20;;;4.70;99.90;;;;;;5051789;28;20100;-76
2021/11/11 07:08:20;;;;;;;1.75;1.08;;;4.80;99.90;;;;;;5050676;28;20029;-76
2021/11/11 07:10:49;;;;;;;0.30;0.30;;;4.90;99.90;;;;;;5051076;28;20400;-76
2021/11/11 07:13:16;;;;;;;0.30;0.30;;;4.90;99.90;;;;;;5035169;28;20086;-76
2021/11/11 07:15:43;;;;;;;0.20;0.20;;;4.90;99.90;;;;;;5052855;28;20507;-76
2021/11/11 07:18:11;;;;;;;0.20;0.20;;;4.90;99.90;;;;;;5052363;28;20036;-76
2021/11/11 07:20:40;;;;;;;0.20;0.20;;;4.90;99.90;;;;;;5054714;28;20111;-76
2021/11/11 07:23:06;;;;;;;0.20;0.20;;;5.00;99.90;;;;;;5053512;28;20477;-76
2021/11/11 07:25:32;;;;;;;1.65;1.02;;;5.10;99.90;;;;;;5052290;28;20163;-76
2021/11/11 07:27:59;;;;;;;0.30;0.30;;;5.10;99.90;;;;;;5052334;28;20021;-76
2021/11/11 07:30:26;;;;;;;1.60;1.50;;;5.10;99.90;;;;;;5053476;28;20385;-76
2021/11/11 07:32:52;;;;;;;0.30;0.30;;;5.20;99.90;;;;;;5052270;28;20052;-76
2021/11/11 07:35:18;;;;;;;0.98;0.98;;;5.20;99.90;;;;;;5053405;28;20107;-77
2021/11/11 07:37:46;;;;;;;0.73;0.73;;;5.30;99.90;;;;;;5046265;28;20544;-76
2021/11/11 07:40:16;;;;;;;1.35;1.35;;;5.20;99.90;;;;;;5041868;28;20466;-76
2021/11/11 07:42:43;;;;;;;0.30;0.30;;;5.30;99.90;;;;;;5031817;28;20055;-76
2021/11/11 07:45:10;;;;;;;0.20;0.20;;;5.40;99.90;;;;;;5031938;28;20022;-76
2021/11/11 07:47:36;;;;;;;0.38;0.38;;;5.50;99.90;;;;;;5031975;28;20061;-76
2021/11/11 07:50:05;;;;;;;0.30;0.30;;;5.60;99.90;;;;;;5032017;28;20017;-76
2021/11/11 07:52:31;;;;;;;0.20;0.20;;;5.60;99.90;;;;;;5033251;28;20057;-77
2021/11/11 07:54:59;;;;;;;0.43;0.43;;;5.80;99.90;;;;;;5041065;28;20201;-76
2021/11/11 07:57:28;;;;;;;0.95;0.95;;;5.80;99.90;;;;;;5053016;28;20113;-76
2021/11/11 07:59:54;;;;;;;0.20;0.20;;;5.70;99.90;;;;;;5052145;28;20553;-77
2021/11/11 08:02:22;;;;;;;0.55;0.55;;;5.70;99.90;;;;;;5055144;28;20036;-77
2021/11/11 08:04:48;;;;;;;5.15;1.27;;;5.70;99.90;;;;;;5033901;28;20019;-77
2021/11/11 08:07:17;;;;;;;0.30;0.30;;;5.70;99.90;;;;;;5035597;28;20071;-77
2021/11/11 08:09:48;;;;;;;0.30;0.30;;;5.70;99.90;;;;;;5034417;28;20028;-77
2021/11/11 08:12:15;;;;;;;0.30;0.30;;;5.90;99.90;;;;;;5035652;28;20452;-77
2021/11/11 08:14:40;;;;;;;0.20;0.20;;;6.00;99.90;;;;;;5035884;28;20461;-77
2021/11/11 08:17:08;;;;;;;0.30;0.30;;;6.00;99.90;;;;;;5034955;28;20021;-77
2021/11/11 08:19:34;;;;;;;2.05;1.95;;;6.10;99.90;;;;;;5035082;28;20436;-77
2021/11/11 08:22:00;;;;;;;0.30;0.30;;;6.30;99.90;;;;;;5034335;28;20030;-77
2021/11/11 08:24:26;;;;;;;0.20;0.20;;;6.40;99.90;;;;;;5032526;28;20362;-78
2021/11/11 08:26:52;;;;;;;0.20;0.20;;;6.50;99.90;;;;;;5031751;28;20036;-76
2021/11/11 08:29:17;;;;;;;0.30;0.30;;;6.60;99.90;;;;;;5032476;28;20362;-77
2021/11/11 08:31:44;;;;;;;0.20;0.20;;;6.70;99.90;;;;;;5032734;28;20033;-77
2021/11/11 08:34:10;;;;;;;0.50;0.50;;;6.90;99.90;;;;;;5031401;28;20504;-77
2021/11/11 08:36:36;;;;;;;2.38;1.38;;;7.00;99.90;;;;;;5016235;28;20401;-77
2021/11/11 08:39:03;;;;;;;0.20;0.20;;;7.10;99.90;;;;;;5036301;28;20026;-77
2021/11/11 08:41:29;;;;;;;0.20;0.20;;;7.10;99.90;;;;;;5036297;28;20017;-78
2021/11/11 08:43:57;;;;;;;0.30;0.30;;;7.00;99.90;;;;;;5035407;28;20108;-77
2021/11/11 08:46:23;;;;;;;0.20;0.20;;;7.00;99.90;;;;;;5016881;28;20432;-77
2021/11/11 08:48:49;;;;;;;0.20;0.20;;;7.00;99.90;;;;;;5035563;28;20088;-77
2021/11/11 08:51:15;;;;;;;0.20;0.20;;;7.10;99.90;;;;;;5034359;28;20051;-78
2021/11/11 08:53:41;;;;;;;0.30;0.30;;;7.20;99.90;;;;;;5035910;28;20076;-77
2021/11/11 08:56:07;;;;;;;0.20;0.20;;;7.40;99.90;;;;;;5033792;28;20026;-77
2021/11/11 08:58:36;;;;;;;0.20;0.20;;;7.50;99.90;;;;;;5033396;28;20075;-78
2021/11/11 09:01:05;;;;;;;0.20;0.20;;;7.70;99.90;;;;;;5035422;28;20029;-77
2021/11/11 09:03:32;;;;;;;0.20;0.20;;;7.80;99.90;;;;;;5034403;28;20030;-78
2021/11/11 09:05:58;;;;;;;0.20;0.20;;;8.00;99.90;;;;;;5035357;28;20040;-78
2021/11/11 09:08:24;;;;;;;0.20;0.20;;;8.20;99.90;;;;;;5035264;28;20093;-77
2021/11/11 09:10:52;;;;;;;0.20;0.20;;;8.30;99.90;;;;;;5035445;28;20024;-77
2021/11/11 09:13:18;;;;;;;0.20;0.20;;;8.50;99.90;;;;;;5035440;28;20033;-77
2021/11/11 09:15:44;;;;;;;0.20;0.20;;;8.70;99.90;;;;;;5035763;28;20083;-77
2021/11/11 09:18:10;;;;;;;0.20;0.20;;;8.90;99.90;;;;;;5034019;28;20112;-78
2021/11/11 09:20:39;;;;;;;0.20;0.20;;;9.10;99.90;;;;;;5030504;28;20120;-77
2021/11/11 09:23:06;;;;;;;0.75;0.75;;;9.20;99.90;;;;;;5031509;28;20033;-77
2021/11/11 09:25:33;;;;;;;0.20;0.20;;;9.30;99.90;;;;;;5031440;28;20025;-76
2021/11/11 09:27:59;;;;;;;0.20;0.20;;;9.50;99.90;;;;;;5031462;28;20033;-76
2021/11/11 09:30:29;;;;;;;0.30;0.30;;;9.70;99.90;;;;;;5031384;28;20022;-76
2021/11/11 09:32:55;;;;;;;0.10;0.10;;;10.00;99.90;;;;;;5031264;28;20110;-77
2021/11/11 09:35:21;;;;;;;0.30;0.30;;;10.00;99.90;;;;;;5029837;28;20021;-76
2021/11/11 09:37:48;;;;;;;0.52;0.52;;;10.10;99.90;;;;;;5030113;28;20482;-76
2021/11/11 09:40:17;;;;;;;0.70;0.70;;;10.50;99.90;;;;;;5033712;28;20382;-77
2021/11/11 09:42:44;;;;;;;0.20;0.20;;;11.00;99.90;;;;;;5034339;28;20026;-76
2021/11/11 09:45:12;;;;;;;0.30;0.30;;;11.50;99.90;;;;;;5017685;28;20507;-77
2021/11/11 09:47:39;;;;;;;0.32;0.32;;;12.00;99.90;;;;;;5018009;28;20389;-77
2021/11/11 09:50:06;;;;;;;0.15;0.15;;;12.50;99.90;;;;;;5036103;28;20144;-77
2021/11/11 09:52:34;;;;;;;0.20;0.20;;;13.00;99.90;;;;;;5034953;28;20036;-77
2021/11/11 10:00:30;;;;;;;1.05;1.00;;;14.50;99.90;;;;;;5036609;28;20026;-77
2021/11/11 10:02:56;;;;;;;0.10;0.10;;;15.10;97.30;;;;;;5036089;28;20029;-77
2021/11/11 10:05:23;;;;;;;0.80;0.43;;;15.60;95.10;;;;;;5035700;28;20028;-77
2021/11/11 10:07:50;;;;;;;0.22;0.22;;;16.00;93.40;;;;;;5036595;28;20104;-77
2021/11/11 10:10:37;;;;;;;0.10;0.10;;;16.60;90.20;;;;;;5036425;28;20032;-77
2021/11/11 10:13:20;;;;;;;0.10;0.10;;;16.80;85.80;;;;;;5034920;28;20027;-74
2021/11/11 10:16:05;;;;;;;2.08;0.82;;;17.00;84.30;;;;;;5033341;28;20270;-75
2021/11/11 10:18:52;;;;;;;0.28;0.28;;;17.40;82.70;;;;;;5033641;28;20025;-75
2021/11/11 10:21:32;;;;;;;0.10;0.10;;;17.90;79.80;;;;;;5033383;28;20558;-75
2021/11/11 10:24:12;;;;;;;0.52;0.52;;;18.30;77.40;;;;;;5034556;28;20025;-75
2021/11/11 10:26:41;;;;;;;0.20;0.20;;;18.70;74.80;;;;;;5022585;28;20108;-75
2021/11/11 10:29:32;;;;;;;0.10;0.10;;;19.00;73.00;;;;;;5049937;28;20553;-76
2021/11/11 10:32:20;;;;;;;0.20;0.20;;;19.00;73.30;;;;;;5069808;23;20057;-91
2021/11/11 10:35:11;;;;;;;0.10;0.10;;;19.30;71.40;;;;;;5016162;28;20502;-93
2021/11/11 10:37:39;;;;;;;0.15;0.15;;;19.60;69.80;;;;;;5027564;28;20030;-93
2021/11/11 10:40:12;;;;;;;5.10;2.05;;;19.70;68.70;;;;;;5017481;28;20085;-94
2021/11/11 10:42:41;;;;;;;0.10;0.10;;;19.90;67.20;;;;;;5017867;28;20026;-93
2021/11/11 10:45:14;;;;;;;0.10;0.10;;;20.10;67.50;;;;;;5016699;28;20082;-91
2021/11/11 10:47:43;;;;;;;0.10;0.10;;;20.20;66.60;;;;;;5022069;28;20014;-93
2021/11/11 10:50:24;;;;;;;4.63;2.53;;;20.50;65.30;;;;;;5021018;28;20032;-93
2021/11/11 10:52:54;;;;;;;0.10;0.10;;;20.80;63.80;;;;;;5019199;28;20041;-92
2021/11/11 10:55:22;;;;;;;3.95;0.55;;;21.00;62.70;;;;;;5026189;28;20010;-94
2021/11/11 10:58:06;;;;;;;1.25;1.20;;;21.00;62.70;;;;;;5039468;28;20049;-94
2021/11/11 11:00:50;;;;;;;2.17;2.08;;;21.00;63.10;;;;;;5022020;28;20030;-94
2021/11/11 11:03:22;;;;;;;0.10;0.10;;;21.10;63.00;;;;;;5032232;28;20021;-93
2021/11/11 11:05:53;;;;;;;2.95;0.57;;;21.20;62.40;;;;;;5041822;28;20032;-94
2021/11/11 11:08:31;;;;;;;1.10;1.00;;;21.40;61.80;;;;;;5041997;28;20013;-95
2021/11/11 11:11:47;;;;;;;0.20;0.20;;;21.20;61.60;;;;;;5041922;28;20014;-94
2021/11/11 11:14:40;;;;;;;0.50;0.43;;;21.50;62.00;;;;;;4992420;28;20050;-78
2021/11/11 11:17:09;;;;;;;3.63;3.33;;;21.60;61.40;;;;;;5009639;28;20026;-77
2021/11/11 11:19:35;;;;;;;2.20;1.67;;;21.70;60.60;;;;;;4993302;28;20018;-78
2021/11/11 11:22:00;;;;;;;1.38;1.27;;;21.60;60.90;;;;;;4976814;28;20076;-78
2021/11/11 11:24:31;;;;;;;0.63;0.63;;;22.00;61.20;;;;;;4993000;28;20029;-78
2021/11/11 11:27:00;;;;;;;0.00;0.00;;;22.30;59.90;;;;;;4993137;28;20042;-78
2021/11/11 11:32:10;;;;;;;0.90;0.73;;;22.60;59.10;;;;;;4993017;28;20065;-77
2021/11/11 11:34:39;;;;;;;0.10;0.10;;;22.80;58.70;;;;;;4993542;28;20036;-78
2021/11/11 11:37:18;;;;;;;0.10;0.10;;;22.50;58.90;;;;;;4993285;28;20025;-77
2021/11/11 11:39:53;;;;;;;0.20;0.20;;;22.70;58.60;;;;;;4993918;28;20023;-77
2021/11/11 11:42:31;;;;;;;0.38;0.20;;;22.70;58.10;;;;;;4993722;28;20612;-78
2021/11/11 11:45:01;;;;;;;0.57;0.57;;;22.80;58.30;;;;;;4991068;28;20018;-77
2021/11/11 11:47:39;;;;;;;0.75;0.75;;;22.70;58.00;;;;;;4992471;28;20367;-78
2021/11/11 11:50:14;;;;;;;0.10;0.10;;;22.50;58.50;;;;;;4981490;28;20023;-77
2021/11/11 11:52:46;;;;;;;0.10;0.10;;;22.50;58.60;;;;;;4976070;28;20030;-77
2021/11/11 12:00:41;;;;;;;0.20;0.20;;;23.50;56.20;;;;;;4993796;28;20026;-78
2021/11/11 12:39:59;;;;;;;0.05;0.05;;;22.90;57.10;;;;;;4972240;28;20121;-77
2021/11/11 12:42:39;;;;;;;0.25;0.25;;;22.60;56.70;;;;;;4971030;28;20045;-77
2021/11/11 12:45:19;;;;;;;0.10;0.10;;;22.40;57.50;;;;;;4972822;28;20483;-77
2021/11/11 12:47:47;;;;;;;0.10;0.10;;;22.50;57.60;;;;;;4976358;28;20019;-77
2021/11/11 12:50:34;;;;;;;0.55;0.52;;;22.40;57.60;;;;;;4974983;28;20023;-77
2021/11/11 12:55:43;;;;;;;0.30;0.30;;;22.30;57.50;;;;;;4974670;28;20030;-78
2021/11/11 12:58:20;;;;;;;0.00;0.00;;;22.00;58.10;;;;;;4989547;28;20046;-78
2021/11/11 13:00:46;;;;;;;1.35;0.40;;;22.20;58.10;;;;;;4973698;28;20026;-77
2021/11/11 13:03:13;;;;;;;0.68;0.68;;;22.20;57.60;;;;;;4973042;28;20038;-77
2021/11/11 13:05:54;;;;;;;1.33;1.00;;;22.20;57.50;;;;;;4972920;28;20501;-79
2021/11/11 13:08:40;;;;;;;0.10;0.10;;;21.60;58.30;;;;;;4989421;28;20035;-77
2021/11/11 13:11:06;;;;;;;0.20;0.20;;;21.10;59.70;;;;;;4972934;28;20030;-77
2021/11/11 13:13:33;;;;;;;0.30;0.30;;;20.30;61.00;;;;;;4972336;28;20096;-77
2021/11/11 13:16:20;;;;;;;0.10;0.10;;;19.40;64.60;;;;;;4972897;28;20102;-77
2021/11/11 13:18:48;;;;;;;1.60;1.58;;;19.00;66.20;;;;;;4972451;28;20117;-77
2021/11/11 13:21:22;;;;;;;0.10;0.10;;;18.50;68.40;;;;;;4956581;28;20060;-78
2021/11/11 13:24:45;;;;;;;0.10;0.10;;;18.60;68.90;;;;;;4972849;28;20034;-77
2021/11/11 13:27:37;;;;;;;0.20;0.20;;;18.50;68.80;;;;;;4975159;28;20038;-78
2021/11/11 14:00:54;;;;;;;2.55;1.80;;;15.70;79.20;;;;;;4991830;28;20045;-77
2021/11/11 14:04:44;;;;;;;2.38;1.50;;;15.40;80.20;;;;;;4990804;28;20030;-78
2021/11/11 16:24:31;;;;;;;0.20;0.20;;;11.50;97.50;;;;;;4992933;28;20439;-72
2021/11/11 16:27:02;;;;;;;0.30;0.30;;;11.40;99.90;;;;;;4990086;28;20062;-72
2021/11/11 16:29:28;;;;;;;0.20;0.20;;;11.50;99.90;;;;;;4993073;28;20026;-72
2021/11/11 16:31:56;;;;;;;0.20;0.20;;;11.60;99.90;;;;;;4993098;28;20124;-72
2021/11/11 16:34:22;;;;;;;0.20;0.20;;;11.40;99.90;;;;;;4992901;28;20026;-72
2021/11/11 16:36:48;;;;;;;0.30;0.30;;;11.40;99.90;;;;;;5035757;23;20152;-74
2021/11/11 16:39:16;;;;;;;1.42;1.30;;;11.40;99.90;;;;;;5014537;28;20435;-75
2021/11/11 16:41:42;;;;;;;0.30;0.30;;;11.30;99.90;;;;;;5031075;28;20021;-74
2021/11/11 16:44:10;;;;;;;0.20;0.20;;;11.30;99.90;;;;;;5031986;28;20030;-74
2021/11/11 16:46:38;;;;;;;0.20;0.20;;;11.20;99.90;;;;;;5030980;28;20083;-75
2021/11/11 16:49:05;;;;;;;0.20;0.20;;;10.90;99.90;;;;;;5031143;28;20079;-74
2021/11/11 16:51:31;;;;;;;0.52;0.52;;;10.90;99.90;;;;;;5032217;28;20053;-74
2021/11/11 16:53:58;;;;;;;0.30;0.30;;;10.60;99.90;;;;;;5030807;28;20064;-74
2021/11/11 16:56:25;;;;;;;0.20;0.20;;;10.60;99.90;;;;;;5032044;28;20022;-75
2021/11/11 16:58:52;;;;;;;0.60;0.60;;;10.50;99.90;;;;;;5030543;28;20080;-75
2021/11/11 17:01:17;;;;;;;0.50;0.50;;;10.30;99.90;;;;;;5021890;28;20017;-76
2021/11/11 17:03:43;;;;;;;2.25;2.05;;;10.30;99.90;;;;;;5012363;28;20025;-75
2021/11/11 17:06:09;;;;;;;0.20;0.20;;;10.40;99.90;;;;;;5011050;28;20025;-75